^^
Datos históricos de la estación: Murcia-Puente Tocinos
Diario Informe para Junio 21, 2019 Unidades:  Ambas    Ingés   Métrico
Diario Semanal Mensual Anual
  Máxima: Mínima: Promedio:
Temperatura: 66.7 °F /  19.3 °C 53.4 °F /  11.9 °C 60.4 °F /  15.8 °C
Punto de rocio: 52.7 °F /  11.5 °C 44.2 °F /  6.8 °C 47.7 °F /  8.7 °C
Humedad: 78% 44.6% 64%
Velocidad viento: 5.9mph /  9.5km/h - 3.3mph /  5.3km/h
Racha viento: 10.4mph /  16.7km/h - -
Viento- - SSE
Presión: 30 in /  1016.7 hPa 29.9 in /  1013.9 hPa -
Precipitación: 0 in /  0.0 mm    
 
 
Tabla de datos para Junio 21, 2019
Hora Temperatura Punto de rocio Presión Viento Velocidad viento Racha viento Humedad Intensidad lluvia(por hora) Nubes
00:04 60.4 °F /  15.8 °C 52.3 °F /  11.3 °C 29.9in /  1013.9hPa SSO 3mph /  4.8km/h 7mph /  11.3km/h 74.7% 0in /  0.0mm
00:09 60.4 °F /  15.8 °C 52.2 °F /  11.2 °C 29.9in /  1014.1hPa Sur 3.1mph /  5km/h 7mph /  11.3km/h 74.1% 0in /  0.0mm
00:14 60.4 °F /  15.8 °C 52.5 °F /  11.4 °C 29.9in /  1014.1hPa SE 3.1mph /  5km/h 5.2mph /  8.4km/h 75% 0in /  0.0mm
00:19 60.4 °F /  15.8 °C 52.5 °F /  11.4 °C 29.9in /  1014.1hPa ESE 3.1mph /  5km/h 7.4mph /  11.9km/h 75.3% 0in /  0.0mm
00:24 60.1 °F /  15.6 °C 52.5 °F /  11.4 °C 30in /  1014.3hPa SE 3.1mph /  5km/h 7mph /  11.3km/h 76% 0in /  0.0mm
00:29 59.7 °F /  15.4 °C 52.3 °F /  11.3 °C 30in /  1014.3hPa SSE 3.1mph /  5km/h 6mph /  9.7km/h 76.6% 0in /  0.0mm
00:34 59.7 °F /  15.4 °C 52.5 °F /  11.4 °C 30in /  1014.3hPa SSE 3.5mph /  5.7km/h 6mph /  9.7km/h 77% 0in /  0.0mm
00:39 59.7 °F /  15.4 °C 52.5 °F /  11.4 °C 30in /  1014.3hPa Sur 3.6mph /  5.8km/h 6mph /  9.7km/h 77% 0in /  0.0mm
00:44 59.7 °F /  15.4 °C 52.5 °F /  11.4 °C 30in /  1014.3hPa Sur 3.2mph /  5.1km/h 6mph /  9.7km/h 77% 0in /  0.0mm
00:49 59.9 °F /  15.5 °C 52.7 °F /  11.5 °C 30in /  1014.3hPa Sur 3.1mph /  5km/h 5mph /  8km/h 77% 0in /  0.0mm
00:54 60.1 °F /  15.6 °C 52.7 °F /  11.5 °C 30in /  1014.4hPa SSO 3.1mph /  5km/h 5mph /  8km/h 76.9% 0in /  0.0mm
00:59 60.1 °F /  15.6 °C 52.5 °F /  11.4 °C 30in /  1014.4hPa SSO 3.1mph /  5km/h 5mph /  8km/h 76% 0in /  0.0mm
01:04 60.1 °F /  15.6 °C 52.2 °F /  11.2 °C 30in /  1014.4hPa SO 2.5mph /  4km/h 5.2mph /  8.4km/h 75.2% 0in /  0.0mm
01:09 60.3 °F /  15.7 °C 52 °F /  11.1 °C 30in /  1014.4hPa SSO 2.4mph /  3.9km/h 5mph /  8km/h 74.6% 0in /  0.0mm
01:14 60.3 °F /  15.7 °C 52.5 °F /  11.4 °C 30in /  1014.3hPa Sur 2.4mph /  3.9km/h 5mph /  8km/h 75.8% 0in /  0.0mm
01:19 59.9 °F /  15.5 °C 52.3 °F /  11.3 °C 30in /  1014.3hPa Sur 2.4mph /  3.9km/h 5mph /  8km/h 76% 0in /  0.0mm
01:24 59.5 °F /  15.3 °C 52.3 °F /  11.3 °C 30in /  1014.7hPa SSO 2.4mph /  3.9km/h 5mph /  8km/h 77% 0in /  0.0mm
01:29 59.5 °F /  15.3 °C 52.3 °F /  11.3 °C 30in /  1014.7hPa SO 2.4mph /  3.9km/h 6.2mph /  10km/h 76.9% 0in /  0.0mm
01:34 59.5 °F /  15.3 °C 52 °F /  11.1 °C 30in /  1014.7hPa OSO 3mph /  4.8km/h 7.4mph /  11.9km/h 75.9% 0in /  0.0mm
01:39 59.4 °F /  15.2 °C 51.4 °F /  10.8 °C 30in /  1014.8hPa SO 3.1mph /  5km/h 7mph /  11.3km/h 74.8% 0in /  0.0mm
01:44 59.4 °F /  15.2 °C 50.9 °F /  10.5 °C 30in /  1014.8hPa SO 3.5mph /  5.7km/h 7.6mph /  12.2km/h 73.9% 0in /  0.0mm
01:49 59.2 °F /  15.1 °C 50.5 °F /  10.3 °C 30in /  1014.8hPa SO 3.6mph /  5.8km/h 8.1mph /  13km/h 73% 0in /  0.0mm
01:54 59.2 °F /  15.1 °C 50.5 °F /  10.3 °C 30in /  1014.8hPa SSO 3.9mph /  6.3km/h 7mph /  11.3km/h 73% 0in /  0.0mm
01:59 59.4 °F /  15.2 °C 50.4 °F /  10.2 °C 30in /  1014.8hPa SO 4mph /  6.5km/h 5.4mph /  8.7km/h 72.1% 0in /  0.0mm
02:04 59.4 °F /  15.2 °C 50.2 °F /  10.1 °C 30in /  1014.8hPa SO 3mph /  4.9km/h 5mph /  8km/h 71.5% 0in /  0.0mm
02:09 59.4 °F /  15.2 °C 50 °F /  10 °C 30in /  1014.8hPa SO 2.9mph /  4.7km/h 5mph /  8km/h 71% 0in /  0.0mm
02:14 59.4 °F /  15.2 °C 49.8 °F /  9.9 °C 30in /  1014.8hPa SO 2.9mph /  4.7km/h 5mph /  8km/h 71% 0in /  0.0mm
02:19 59.2 °F /  15.1 °C 49.8 °F /  9.9 °C 30in /  1014.8hPa Sur 2.9mph /  4.7km/h 4.7mph /  7.6km/h 71% 0in /  0.0mm
02:24 59 °F /  15 °C 49.6 °F /  9.8 °C 30in /  1014.8hPa SSE 2.5mph /  4km/h 5mph /  8km/h 71% 0in /  0.0mm
02:29 58.8 °F /  14.9 °C 49.6 °F /  9.8 °C 30in /  1014.8hPa SSE 2.4mph /  3.9km/h 5mph /  8km/h 71.4% 0in /  0.0mm
02:34 58.6 °F /  14.8 °C 49.5 °F /  9.7 °C 30in /  1014.8hPa SSE 2.1mph /  3.3km/h 3mph /  4.8km/h 71.4% 0in /  0.0mm
02:39 58.6 °F /  14.8 °C 49.5 °F /  9.7 °C 30in /  1014.8hPa Sur 2mph /  3.2km/h 4.6mph /  7.4km/h 71.3% 0in /  0.0mm
02:44 58.6 °F /  14.8 °C 49.6 °F /  9.8 °C 30in /  1014.7hPa SSO 2mph /  3.2km/h 5mph /  8km/h 72% 0in /  0.0mm
02:49 58.5 °F /  14.7 °C 49.5 °F /  9.7 °C 30in /  1014.7hPa SO 2mph /  3.2km/h 4.6mph /  7.4km/h 72% 0in /  0.0mm
02:54 58.5 °F /  14.7 °C 49.5 °F /  9.7 °C 30in /  1014.7hPa SO 2.4mph /  3.8km/h 5.8mph /  9.3km/h 72% 0in /  0.0mm
02:59 58.1 °F /  14.5 °C 48.9 °F /  9.4 °C 30in /  1014.7hPa SSO 2.4mph /  3.9km/h 6mph /  9.7km/h 71.3% 0in /  0.0mm
03:04 58.1 °F /  14.5 °C 48.6 °F /  9.2 °C 30in /  1014.7hPa SO 3.5mph /  5.6km/h 5mph /  8km/h 70.4% 0in /  0.0mm
03:09 58.1 °F /  14.5 °C 48 °F /  8.9 °C 30in /  1014.7hPa OSO 3.6mph /  5.8km/h 5mph /  8km/h 69.2% 0in /  0.0mm
03:14 58.1 °F /  14.5 °C 47.8 °F /  8.8 °C 30in /  1014.7hPa OSO 2.2mph /  3.6km/h 4.6mph /  7.4km/h 68.3% 0in /  0.0mm
03:19 58.1 °F /  14.5 °C 47.5 °F /  8.6 °C 30in /  1014.7hPa OSO 2mph /  3.2km/h 5mph /  8km/h 67.6% 0in /  0.0mm
03:24 58.1 °F /  14.5 °C 46.8 °F /  8.2 °C 30in /  1014.8hPa OSO 2mph /  3.2km/h 4.6mph /  7.4km/h 66.2% 0in /  0.0mm
03:29 57.9 °F /  14.4 °C 46.6 °F /  8.1 °C 30in /  1014.8hPa OSO 2mph /  3.2km/h 5mph /  8km/h 66% 0in /  0.0mm
03:34 57.7 °F /  14.3 °C 46.8 °F /  8.2 °C 30in /  1014.8hPa OSO 2.7mph /  4.4km/h 5.2mph /  8.4km/h 66.5% 0in /  0.0mm
03:39 57.6 °F /  14.2 °C 46.6 °F /  8.1 °C 30in /  1014.8hPa OSO 2.9mph /  4.7km/h 6.2mph /  10km/h 67% 0in /  0.0mm
03:44 57.2 °F /  14 °C 46.4 °F /  8 °C 30in /  1014.6hPa SSO 3.5mph /  5.6km/h 6.2mph /  10km/h 67% 0in /  0.0mm
03:49 57 °F /  13.9 °C 46 °F /  7.8 °C 30in /  1014.6hPa Sur 3.6mph /  5.8km/h 6mph /  9.7km/h 66.7% 0in /  0.0mm
03:54 57 °F /  13.9 °C 45.9 °F /  7.7 °C 30in /  1014.6hPa SSE 3.6mph /  5.8km/h 6.9mph /  11.1km/h 66% 0in /  0.0mm
03:59 57.4 °F /  14.1 °C 46 °F /  7.8 °C 30in /  1014.6hPa SSE 3.6mph /  5.8km/h 7mph /  11.3km/h 66% 0in /  0.0mm
04:04 57.2 °F /  14 °C 45.7 °F /  7.6 °C 30in /  1014.6hPa SSO 4.2mph /  6.8km/h 8.5mph /  13.7km/h 65.2% 0in /  0.0mm
04:09 57 °F /  13.9 °C 45.5 °F /  7.5 °C 30in /  1014.6hPa SSO 4.3mph /  6.9km/h 9mph /  14.5km/h 65.2% 0in /  0.0mm
04:14 57 °F /  13.9 °C 45.7 °F /  7.6 °C 30in /  1014.5hPa SO 4.7mph /  7.5km/h 8mph /  12.9km/h 65.6% 0in /  0.0mm
04:19 57 °F /  13.9 °C 45.3 °F /  7.4 °C 30in /  1014.5hPa SO 4.7mph /  7.6km/h 7.4mph /  11.9km/h 65% 0in /  0.0mm
04:24 57 °F /  13.9 °C 45.3 °F /  7.4 °C 30in /  1014.5hPa SO 4.3mph /  7km/h 7mph /  11.3km/h 65% 0in /  0.0mm
04:29 56.8 °F /  13.8 °C 45.5 °F /  7.5 °C 30in /  1014.4hPa SO 4.3mph /  6.9km/h 7mph /  11.3km/h 65.6% 0in /  0.0mm
04:34 56.8 °F /  13.8 °C 45.7 °F /  7.6 °C 30in /  1014.4hPa SO 4mph /  6.5km/h 6.2mph /  10km/h 66.3% 0in /  0.0mm
04:39 56.7 °F /  13.7 °C 45.9 °F /  7.7 °C 30in /  1014.4hPa SO 4mph /  6.5km/h 7.4mph /  11.9km/h 66.9% 0in /  0.0mm
04:44 56.7 °F /  13.7 °C 45.7 °F /  7.6 °C 30in /  1014.4hPa SO 4.3mph /  6.9km/h 7mph /  11.3km/h 66.8% 0in /  0.0mm
04:49 56.7 °F /  13.7 °C 45.7 °F /  7.6 °C 30in /  1014.4hPa OSO 4.3mph /  6.9km/h 6mph /  9.7km/h 67% 0in /  0.0mm
04:54 56.5 °F /  13.6 °C 45.7 °F /  7.6 °C 30in /  1014.5hPa SO 4mph /  6.5km/h 6mph /  9.7km/h 67% 0in /  0.0mm
04:59 56.5 °F /  13.6 °C 45.7 °F /  7.6 °C 30in /  1014.5hPa SO 4mph /  6.5km/h 6mph /  9.7km/h 67.2% 0in /  0.0mm
05:04 56.5 °F /  13.6 °C 46 °F /  7.8 °C 30in /  1014.5hPa SO 3mph /  4.9km/h 5.2mph /  8.4km/h 68% 0in /  0.0mm
05:09 56.3 °F /  13.5 °C 45.9 °F /  7.7 °C 30in /  1014.5hPa SSO 2.9mph /  4.7km/h 5mph /  8km/h 68% 0in /  0.0mm
05:14 56.1 °F /  13.4 °C 46 °F /  7.8 °C 30in /  1014.4hPa SSO 3mph /  4.9km/h 5.8mph /  9.3km/h 69% 0in /  0.0mm
05:19 56.1 °F /  13.4 °C 46 °F /  7.8 °C 30in /  1014.4hPa OSO 3.1mph /  5km/h 6mph /  9.7km/h 69% 0in /  0.0mm
05:24 56.1 °F /  13.4 °C 46 °F /  7.8 °C 30in /  1014.4hPa OSO 3.1mph /  5km/h 5mph /  8km/h 69% 0in /  0.0mm
05:29 56.1 °F /  13.4 °C 46.4 °F /  8 °C 30in /  1014.3hPa OSO 3.1mph /  5km/h 5mph /  8km/h 69.6% 0in /  0.0mm
05:34 56.1 °F /  13.4 °C 46.4 °F /  8 °C 30in /  1014.3hPa SO 2.5mph /  4km/h 5.8mph /  9.3km/h 70% 0in /  0.0mm
05:39 55.9 °F /  13.3 °C 46.4 °F /  8 °C 30in /  1014.3hPa SO 2.4mph /  3.9km/h 8.1mph /  13km/h 70.5% 0in /  0.0mm
05:44 55.8 °F /  13.2 °C 46.4 °F /  8 °C 30in /  1014.3hPa SO 3.7mph /  6km/h 8mph /  12.9km/h 70.6% 0in /  0.0mm
05:49 55.8 °F /  13.2 °C 45.9 °F /  7.7 °C 30in /  1014.3hPa SO 4mph /  6.5km/h 8.1mph /  13km/h 69.5% 0in /  0.0mm
05:54 55.6 °F /  13.1 °C 45.5 °F /  7.5 °C 30in /  1014.3hPa SO 4.6mph /  7.4km/h 8.1mph /  13km/h 68.9% 0in /  0.0mm
05:59 55.6 °F /  13.1 °C 45.5 °F /  7.5 °C 30in /  1014.3hPa SO 4.7mph /  7.6km/h 8mph /  12.9km/h 68.9% 0in /  0.0mm
06:04 55.6 °F /  13.1 °C 45.7 °F /  7.6 °C 30in /  1014.3hPa SO 4.7mph /  7.6km/h 7mph /  11.3km/h 69% 0in /  0.0mm
06:09 55.6 °F /  13.1 °C 45.9 °F /  7.7 °C 30in /  1014.3hPa SSO 4.7mph /  7.6km/h 7mph /  11.3km/h 69.9% 0in /  0.0mm
06:14 55.4 °F /  13 °C 45.7 °F /  7.6 °C 30in /  1014.3hPa SSO 4.1mph /  6.6km/h 7mph /  11.3km/h 70% 0in /  0.0mm
06:19 55.2 °F /  12.9 °C 45.7 °F /  7.6 °C 30in /  1014.3hPa SSO 4mph /  6.5km/h 6mph /  9.7km/h 70% 0in /  0.0mm
06:24 55.2 °F /  12.9 °C 45.7 °F /  7.6 °C 30in /  1014.5hPa SSO 4mph /  6.5km/h 6mph /  9.7km/h 70% 0in /  0.0mm
06:29 55 °F /  12.8 °C 45.1 °F /  7.3 °C 30in /  1014.5hPa SSE 4mph /  6.5km/h 6mph /  9.7km/h 69.2% 0in /  0.0mm
06:34 54.9 °F /  12.7 °C 44.8 °F /  7.1 °C 30in /  1014.5hPa Sur 4.3mph /  6.9km/h 8.1mph /  13km/h 69% 0in /  0.0mm
06:39 54.5 °F /  12.5 °C 44.6 °F /  7 °C 30in /  1014.7hPa SSO 4.3mph /  6.9km/h 9.2mph /  14.8km/h 69% 0in /  0.0mm
06:44 54.1 °F /  12.3 °C 44.2 °F /  6.8 °C 30in /  1014.7hPa SSO 5.7mph /  9.1km/h 9.7mph /  15.6km/h 69% 0in /  0.0mm
06:49 54.1 °F /  12.3 °C 44.2 °F /  6.8 °C 30in /  1014.7hPa SSO 5.9mph /  9.5km/h 10mph /  16.1km/h 69% 0in /  0.0mm
06:54 54.1 °F /  12.3 °C 44.2 °F /  6.8 °C 30in /  1014.7hPa SO 4.9mph /  7.9km/h 7mph /  11.3km/h 69% 0in /  0.0mm
06:59 54.3 °F /  12.4 °C 44.4 °F /  6.9 °C 30in /  1014.6hPa SO 4.7mph /  7.6km/h 7mph /  11.3km/h 69% 0in /  0.0mm
07:04 54.3 °F /  12.4 °C 44.4 °F /  6.9 °C 30in /  1014.6hPa SO 4.3mph /  7km/h 7mph /  11.3km/h 69% 0in /  0.0mm
07:09 54.5 °F /  12.5 °C 44.4 °F /  6.9 °C 30in /  1014.6hPa OSO 4.3mph /  6.9km/h 6mph /  9.7km/h 69% 0in /  0.0mm
07:14 54.3 °F /  12.4 °C 44.4 °F /  6.9 °C 30in /  1014.5hPa OSO 3.7mph /  6km/h 6.2mph /  10km/h 69.1% 0in /  0.0mm
07:19 54.3 °F /  12.4 °C 44.8 °F /  7.1 °C 30in /  1014.5hPa SO 3.6mph /  5.8km/h 6mph /  9.7km/h 70% 0in /  0.0mm
07:24 54.3 °F /  12.4 °C 44.8 °F /  7.1 °C 30in /  1014.7hPa SO 3mph /  4.8km/h 5.9mph /  9.5km/h 70% 0in /  0.0mm
07:29 54.3 °F /  12.4 °C 44.8 °F /  7.1 °C 30in /  1014.7hPa SO 2.9mph /  4.7km/h 6.2mph /  10km/h 70% 0in /  0.0mm
07:34 54.3 °F /  12.4 °C 45 °F /  7.2 °C 30in /  1014.7hPa SO 3.8mph /  6.1km/h 7.4mph /  11.9km/h 70.7% 0in /  0.0mm
07:39 54.1 °F /  12.3 °C 45 °F /  7.2 °C 30in /  1014.9hPa SO 4mph /  6.5km/h 7mph /  11.3km/h 71% 0in /  0.0mm
07:44 54.1 °F /  12.3 °C 44.8 °F /  7.1 °C 30in /  1014.9hPa SO 4.3mph /  6.9km/h 7.4mph /  11.9km/h 70.9% 0in /  0.0mm
07:49 54.1 °F /  12.3 °C 45 °F /  7.2 °C 30in /  1014.9hPa SO 4.3mph /  6.9km/h 7mph /  11.3km/h 70.9% 0in /  0.0mm
07:54 54.1 °F /  12.3 °C 44.6 °F /  7 °C 30in /  1014.9hPa SO 4mph /  6.5km/h 7mph /  11.3km/h 70.1% 0in /  0.0mm
07:59 54.1 °F /  12.3 °C 44.6 °F /  7 °C 30in /  1014.8hPa SO 4mph /  6.5km/h 5.4mph /  8.7km/h 70% 0in /  0.0mm
08:04 54.1 °F /  12.3 °C 44.6 °F /  7 °C 30in /  1014.8hPa Oeste 2.6mph /  4.2km/h 6mph /  9.7km/h 70% 0in /  0.0mm
08:09 54.1 °F /  12.3 °C 45 °F /  7.2 °C 30in /  1015.1hPa Oeste 2.4mph /  3.9km/h 6mph /  9.7km/h 70.9% 0in /  0.0mm
08:14 54.1 °F /  12.3 °C 44.8 °F /  7.1 °C 30in /  1015.1hPa Oeste 2.8mph /  4.5km/h 5mph /  8km/h 71% 0in /  0.0mm
08:19 54 °F /  12.2 °C 44.8 °F /  7.1 °C 30in /  1015.1hPa Oeste 2.9mph /  4.7km/h 5.8mph /  9.3km/h 71% 0in /  0.0mm
08:24 54 °F /  12.2 °C 45 °F /  7.2 °C 30in /  1015.1hPa ONO 3mph /  4.9km/h 6.9mph /  11.1km/h 71.6% 0in /  0.0mm
08:29 54 °F /  12.2 °C 45.1 °F /  7.3 °C 30in /  1015.0hPa ONO 3.1mph /  5km/h 7mph /  11.3km/h 72% 0in /  0.0mm
08:34 54 °F /  12.2 °C 45.3 °F /  7.4 °C 30in /  1015.3hPa ONO 3.1mph /  5km/h 5mph /  8km/h 72.3% 0in /  0.0mm
08:39 54 °F /  12.2 °C 45.5 °F /  7.5 °C 30in /  1015.3hPa ONO 3.1mph /  5km/h 5.2mph /  8.4km/h 73% 0in /  0.0mm
08:44 54 °F /  12.2 °C 45.3 °F /  7.4 °C 30in /  1015.3hPa ONO 2.5mph /  4km/h 5.2mph /  8.4km/h 73% 0in /  0.0mm
08:49 53.8 °F /  12.1 °C 45.3 °F /  7.4 °C 30in /  1015.3hPa Oeste 2.4mph /  3.9km/h 5mph /  8km/h 73.1% 0in /  0.0mm
08:54 53.6 °F /  12 °C 45.3 °F /  7.4 °C 30in /  1015.8hPa SO 2.1mph /  3.3km/h 5mph /  8km/h 73% 0in /  0.0mm
08:59 53.8 °F /  12.1 °C 45.7 °F /  7.6 °C 30in /  1015.8hPa SE 2mph /  3.2km/h 4.6mph /  7.4km/h 74.4% 0in /  0.0mm
09:04 53.8 °F /  12.1 °C 46.2 °F /  7.9 °C 30in /  1015.8hPa ESE 1.8mph /  2.9km/h 5mph /  8km/h 75.3% 0in /  0.0mm
09:09 53.8 °F /  12.1 °C 46.4 °F /  8 °C 30in /  1015.8hPa ESE 1.8mph /  2.9km/h 3.6mph /  5.8km/h 76% 0in /  0.0mm
09:14 53.6 °F /  12 °C 46 °F /  7.8 °C 30in /  1015.8hPa SE 2mph /  3.2km/h 4.6mph /  7.4km/h 76% 0in /  0.0mm
09:19 53.4 °F /  11.9 °C 46.4 °F /  8 °C 30in /  1015.8hPa Sur 2mph /  3.2km/h 5mph /  8km/h 76.9% 0in /  0.0mm
09:24 53.4 °F /  11.9 °C 46.4 °F /  8 °C 30in /  1016.1hPa Sur 2mph /  3.2km/h 5mph /  8km/h 77% 0in /  0.0mm
09:29 53.4 °F /  11.9 °C 46.4 °F /  8 °C 30in /  1016.1hPa Sur 2mph /  3.2km/h 2.3mph /  3.7km/h 77.1% 0in /  0.0mm
09:34 53.4 °F /  11.9 °C 46.8 °F /  8.2 °C 30in /  1016.1hPa Sur 0.3mph /  0.5km/h 2mph /  3.2km/h 78% 0in /  0.0mm
09:39 53.8 °F /  12.1 °C 46.8 °F /  8.2 °C 30in /  1016.4hPa Calm   2.9mph /  4.7km/h 76.9% 0in /  0.0mm
09:44 54 °F /  12.2 °C 46 °F /  7.8 °C 30in /  1016.4hPa Calm   4.6mph /  7.4km/h 74.6% 0in /  0.0mm
09:49 54.1 °F /  12.3 °C 45.5 °F /  7.5 °C 30in /  1016.4hPa Calm   5mph /  8km/h 72.3% 0in /  0.0mm
09:54 54.3 °F /  12.4 °C 45.7 °F /  7.6 °C 30in /  1016.5hPa NO 1.7mph /  2.8km/h 4mph /  6.4km/h 72% 0in /  0.0mm
09:59 54.7 °F /  12.6 °C 46 °F /  7.8 °C 30in /  1016.5hPa NO 2mph /  3.2km/h 3.6mph /  5.8km/h 72.7% 0in /  0.0mm
10:04 54.9 °F /  12.7 °C 45.9 °F /  7.7 °C 30in /  1016.5hPa OSO 1.8mph /  2.9km/h 5.9mph /  9.5km/h 71.7% 0in /  0.0mm
10:09 55 °F /  12.8 °C 45.5 °F /  7.5 °C 30in /  1016.5hPa SO 1.8mph /  2.9km/h 6.9mph /  11.1km/h 70.3% 0in /  0.0mm
10:14 55.4 °F /  13 °C 45 °F /  7.2 °C 30in /  1016.4hPa OSO 3.3mph /  5.3km/h 7mph /  11.3km/h 67.8% 0in /  0.0mm
10:19 55.8 °F /  13.2 °C 44.6 °F /  7 °C 30in /  1016.4hPa OSO 3.6mph /  5.8km/h 6mph /  9.7km/h 66.4% 0in /  0.0mm
10:24 55.9 °F /  13.3 °C 44.4 °F /  6.9 °C 30in /  1016.6hPa SO 3.6mph /  5.8km/h 6.9mph /  11.1km/h 65.5% 0in /  0.0mm
10:29 56.5 °F /  13.6 °C 44.4 °F /  6.9 °C 30in /  1016.6hPa SO 3.6mph /  5.8km/h 7mph /  11.3km/h 64.4% 0in /  0.0mm
10:34 56.7 °F /  13.7 °C 44.2 °F /  6.8 °C 30in /  1016.7hPa SO 4.2mph /  6.8km/h 7mph /  11.3km/h 63% 0in /  0.0mm
10:39 56.7 °F /  13.7 °C 44.2 °F /  6.8 °C 30in /  1016.7hPa OSO 4.3mph /  6.9km/h 6mph /  9.7km/h 63% 0in /  0.0mm
10:44 56.8 °F /  13.8 °C 44.4 °F /  6.9 °C 30in /  1016.7hPa OSO 3.7mph /  6km/h 5.4mph /  8.7km/h 63% 0in /  0.0mm
10:49 57 °F /  13.9 °C 44.8 °F /  7.1 °C 30in /  1016.7hPa OSO 3.6mph /  5.8km/h 6mph /  9.7km/h 63.4% 0in /  0.0mm
10:54 57.4 °F /  14.1 °C 45.1 °F /  7.3 °C 30in /  1016.7hPa Oeste 3.2mph /  5.1km/h 6mph /  9.7km/h 64% 0in /  0.0mm
10:59 57.6 °F /  14.2 °C 45.5 °F /  7.5 °C 30in /  1016.6hPa SO 3.1mph /  5km/h 6.9mph /  11.1km/h 64% 0in /  0.0mm
11:04 57.7 °F /  14.3 °C 45.1 °F /  7.3 °C 30in /  1016.6hPa SO 3.1mph /  5km/h 7mph /  11.3km/h 63% 0in /  0.0mm
11:09 57.9 °F /  14.4 °C 45.3 °F /  7.4 °C 30in /  1016.6hPa SSO 3.1mph /  5km/h 7.4mph /  11.9km/h 62.8% 0in /  0.0mm
11:14 58.1 °F /  14.5 °C 45.1 °F /  7.3 °C 30in /  1016.6hPa SO 4.1mph /  6.6km/h 7mph /  11.3km/h 62.1% 0in /  0.0mm
11:19 58.5 °F /  14.7 °C 45.5 °F /  7.5 °C 30in /  1016.6hPa SO 4.3mph /  6.9km/h 9.2mph /  14.8km/h 62% 0in /  0.0mm
11:24 58.8 °F /  14.9 °C 45.9 °F /  7.7 °C 30in /  1016.6hPa SSO 4.7mph /  7.5km/h 9.2mph /  14.8km/h 62% 0in /  0.0mm
11:29 59.4 °F /  15.2 °C 46.2 °F /  7.9 °C 30in /  1016.6hPa SSE 4.7mph /  7.6km/h 9.2mph /  14.8km/h 62% 0in /  0.0mm
11:34 59.4 °F /  15.2 °C 46.4 °F /  8 °C 30in /  1016.6hPa Sur 5.2mph /  8.3km/h 8.5mph /  13.7km/h 62.3% 0in /  0.0mm
11:39 59.5 °F /  15.3 °C 46.8 °F /  8.2 °C 30in /  1016.7hPa SSO 5.2mph /  8.4km/h 9mph /  14.5km/h 62.5% 0in /  0.0mm
11:44 59.9 °F /  15.5 °C 46.9 °F /  8.3 °C 30in /  1016.7hPa SSO 5.2mph /  8.4km/h 8.1mph /  13km/h 62% 0in /  0.0mm
11:49 60.1 °F /  15.6 °C 47.1 °F /  8.4 °C 30in /  1016.7hPa SSO 5.2mph /  8.4km/h 9.2mph /  14.8km/h 62% 0in /  0.0mm
11:54 60.3 °F /  15.7 °C 47.3 °F /  8.5 °C 30in /  1016.7hPa SSO 5.3mph /  8.6km/h 9mph /  14.5km/h 61.9% 0in /  0.0mm
11:59 60.6 °F /  15.9 °C 47.1 °F /  8.4 °C 30in /  1016.6hPa SSO 5.4mph /  8.7km/h 9mph /  14.5km/h 61.1% 0in /  0.0mm
12:04 60.8 °F /  16 °C 46.9 °F /  8.3 °C 30in /  1016.6hPa SSO 4.4mph /  7.1km/h 7mph /  11.3km/h 60.3% 0in /  0.0mm
12:09 61.2 °F /  16.2 °C 46.6 °F /  8.1 °C 30in /  1016.7hPa OSO 4.3mph /  6.9km/h 10.4mph /  16.7km/h 58.8% 0in /  0.0mm
12:14 61.2 °F /  16.2 °C 46 °F /  7.8 °C 30in /  1016.7hPa SO 5.1mph /  8.2km/h 10mph /  16.1km/h 57.4% 0in /  0.0mm
12:19 61.2 °F /  16.2 °C 45.9 °F /  7.7 °C 30in /  1016.7hPa OSO 5.2mph /  8.4km/h 9.7mph /  15.6km/h 57% 0in /  0.0mm
12:24 61.3 °F /  16.3 °C 46 °F /  7.8 °C 30in /  1016.7hPa OSO 5.3mph /  8.6km/h 10mph /  16.1km/h 57% 0in /  0.0mm
12:29 61.3 °F /  16.3 °C 46 °F /  7.8 °C 30in /  1016.6hPa OSO 5.4mph /  8.7km/h 9mph /  14.5km/h 57% 0in /  0.0mm
12:34 61.5 °F /  16.4 °C 46 °F /  7.8 °C 30in /  1016.6hPa OSO 4.8mph /  7.7km/h 9.2mph /  14.8km/h 56.7% 0in /  0.0mm
12:39 61.5 °F /  16.4 °C 46.2 °F /  7.9 °C 30in /  1016.6hPa OSO 4.7mph /  7.6km/h 9mph /  14.5km/h 57% 0in /  0.0mm
12:44 61.7 °F /  16.5 °C 46.2 °F /  7.9 °C 30in /  1016.4hPa SO 4.3mph /  7km/h 6mph /  9.7km/h 57% 0in /  0.0mm
12:49 61.9 °F /  16.6 °C 46.2 °F /  7.9 °C 30in /  1016.4hPa SO 4.3mph /  6.9km/h 6mph /  9.7km/h 56.7% 0in /  0.0mm
12:54 62.1 °F /  16.7 °C 46.4 °F /  8 °C 30in /  1016.4hPa SSO 3.3mph /  5.3km/h 6.9mph /  11.1km/h 56.7% 0in /  0.0mm
12:59 62.1 °F /  16.7 °C 46.2 °F /  7.9 °C 30in /  1016.3hPa SO 3.1mph /  5km/h 7mph /  11.3km/h 56% 0in /  0.0mm
13:04 62.2 °F /  16.8 °C 45.9 °F /  7.7 °C 30in /  1016.3hPa SO 3.5mph /  5.7km/h 6.9mph /  11.1km/h 55% 0in /  0.0mm
13:09 62.4 °F /  16.9 °C 46.2 °F /  7.9 °C 30in /  1016.4hPa SO 3.6mph /  5.8km/h 7.4mph /  11.9km/h 55.3% 0in /  0.0mm
13:14 62.4 °F /  16.9 °C 46.6 °F /  8.1 °C 30in /  1016.4hPa SSO 3.9mph /  6.2km/h 7mph /  11.3km/h 55.9% 0in /  0.0mm
13:19 62.8 °F /  17.1 °C 46.6 °F /  8.1 °C 30in /  1016.4hPa OSO 4mph /  6.5km/h 8.5mph /  13.7km/h 55.5% 0in /  0.0mm
13:24 63 °F /  17.2 °C 46.8 °F /  8.2 °C 30in /  1016.4hPa OSO 3.7mph /  6km/h 9mph /  14.5km/h 55.4% 0in /  0.0mm
13:29 63 °F /  17.2 °C 46 °F /  7.8 °C 30in /  1016.1hPa OSO 3.6mph /  5.8km/h 6mph /  9.7km/h 54.1% 0in /  0.0mm
13:34 63 °F /  17.2 °C 46.2 °F /  7.9 °C 30in /  1016.1hPa SSO 3.3mph /  5.3km/h 6.2mph /  10km/h 54.6% 0in /  0.0mm
13:39 63.1 °F /  17.3 °C 46.4 °F /  8 °C 30in /  1016.1hPa SSO 3.1mph /  5km/h 6mph /  9.7km/h 54.7% 0in /  0.0mm
13:44 63.1 °F /  17.3 °C 46.8 °F /  8.2 °C 30in /  1016.0hPa SSO 3.1mph /  5km/h 5mph /  8km/h 55% 0in /  0.0mm
13:49 63.5 °F /  17.5 °C 47.1 °F /  8.4 °C 30in /  1016.0hPa Sur 3.1mph /  5km/h 5mph /  8km/h 55% 0in /  0.0mm
13:54 63.9 °F /  17.7 °C 47.1 °F /  8.4 °C 30in /  1016.0hPa SE 2.2mph /  3.6km/h 5mph /  8km/h 54.3% 0in /  0.0mm
13:59 64 °F /  17.8 °C 46.9 °F /  8.3 °C 30in /  1015.8hPa SE 1.8mph /  2.9km/h 5.2mph /  8.4km/h 53.6% 0in /  0.0mm
14:04 64.2 °F /  17.9 °C 46.8 °F /  8.2 °C 30in /  1015.8hPa OSO 2.5mph /  4.1km/h 5mph /  8km/h 53% 0in /  0.0mm
14:09 64.4 °F /  18 °C 46.4 °F /  8 °C 30in /  1015.8hPa ONO 2.9mph /  4.7km/h 6.2mph /  10km/h 52% 0in /  0.0mm
14:14 64.4 °F /  18 °C 46.6 °F /  8.1 °C 30in /  1015.7hPa NO 3.6mph /  5.8km/h 6mph /  9.7km/h 52.2% 0in /  0.0mm
14:19 64.6 °F /  18.1 °C 46.6 °F /  8.1 °C 30in /  1015.7hPa NNE 4mph /  6.5km/h 6mph /  9.7km/h 52.3% 0in /  0.0mm
14:24 64.8 °F /  18.2 °C 47.3 °F /  8.5 °C 30in /  1015.7hPa NE 2.7mph /  4.4km/h 3mph /  4.8km/h 53% 0in /  0.0mm
14:29 65.3 °F /  18.5 °C 47.3 °F /  8.5 °C 30in /  1015.4hPa NE 2mph /  3.2km/h 4.6mph /  7.4km/h 52.1% 0in /  0.0mm
14:34 65.7 °F /  18.7 °C 47.3 °F /  8.5 °C 30in /  1015.4hPa SE 1.6mph /  2.6km/h 5mph /  8km/h 51.7% 0in /  0.0mm
14:39 65.7 °F /  18.7 °C 46.4 °F /  8 °C 30in /  1015.4hPa Este 1.4mph /  2.2km/h 5.2mph /  8.4km/h 49.5% 0in /  0.0mm
14:44 65.7 °F /  18.7 °C 46.8 °F /  8.2 °C 30in /  1015.3hPa Este 2.4mph /  3.8km/h 5.8mph /  9.3km/h 50.7% 0in /  0.0mm
14:49 65.5 °F /  18.6 °C 47.5 °F /  8.6 °C 30in /  1015.3hPa ENE 2.9mph /  4.7km/h 6mph /  9.7km/h 52.2% 0in /  0.0mm
14:54 65.5 °F /  18.6 °C 47.8 °F /  8.8 °C 30in /  1015.3hPa Este 2.5mph /  4.1km/h 5.9mph /  9.5km/h 52.8% 0in /  0.0mm
14:59 65.5 °F /  18.6 °C 47.5 °F /  8.6 °C 30in /  1015.3hPa ENE 2.4mph /  3.9km/h 6mph /  9.7km/h 52.3% 0in /  0.0mm
15:04 65.3 °F /  18.5 °C 47.1 °F /  8.4 °C 30in /  1015.3hPa Este 3.2mph /  5.1km/h 6mph /  9.7km/h 52% 0in /  0.0mm
15:09 65.5 °F /  18.6 °C 47.3 °F /  8.5 °C 30in /  1015.3hPa Este 3.6mph /  5.8km/h 6.2mph /  10km/h 51.8% 0in /  0.0mm
15:14 65.7 °F /  18.7 °C 46.6 °F /  8.1 °C 30in /  1015.0hPa NE 3.2mph /  5.2km/h 6mph /  9.7km/h 50.2% 0in /  0.0mm
15:19 65.7 °F /  18.7 °C 46.4 °F /  8 °C 30in /  1015.0hPa North 3.1mph /  5km/h 4.6mph /  7.4km/h 49.8% 0in /  0.0mm
15:24 66 °F /  18.9 °C 46.8 °F /  8.2 °C 30in /  1015.0hPa NE 2.2mph /  3.6km/h 5mph /  8km/h 49.9% 0in /  0.0mm
15:29 66.2 °F /  19 °C 46.4 °F /  8 °C 30in /  1014.9hPa NE 1.8mph /  2.9km/h 7.4mph /  11.9km/h 48.8% 0in /  0.0mm
15:34 66 °F /  18.9 °C 45.9 °F /  7.7 °C 30in /  1014.9hPa NE 3.2mph /  5.2km/h 7.4mph /  11.9km/h 48% 0in /  0.0mm
15:39 66 °F /  18.9 °C 45.1 °F /  7.3 °C 30in /  1014.9hPa ENE 4mph /  6.5km/h 7mph /  11.3km/h 47% 0in /  0.0mm
15:44 66 °F /  18.9 °C 45.5 °F /  7.5 °C 30in /  1014.9hPa NE 3.7mph /  6km/h 8.1mph /  13km/h 47.5% 0in /  0.0mm
15:49 66 °F /  18.9 °C 45.9 °F /  7.7 °C 30in /  1014.9hPa NE 3.6mph /  5.8km/h 8.1mph /  13km/h 48% 0in /  0.0mm
15:54 66 °F /  18.9 °C 45.9 °F /  7.7 °C 30in /  1014.9hPa NE 4.3mph /  6.9km/h 8mph /  12.9km/h 48% 0in /  0.0mm
15:59 66.2 °F /  19 °C 45.9 °F /  7.7 °C 30in /  1014.8hPa NE 4.7mph /  7.6km/h 8.5mph /  13.7km/h 48% 0in /  0.0mm
16:04 66.4 °F /  19.1 °C 46.4 °F /  8 °C 30in /  1014.8hPa NE 4.7mph /  7.6km/h 9mph /  14.5km/h 48.6% 0in /  0.0mm
16:09 66.4 °F /  19.1 °C 46.6 °F /  8.1 °C 30in /  1014.9hPa NE 4.7mph /  7.6km/h 7mph /  11.3km/h 48.9% 0in /  0.0mm
16:14 66.6 °F /  19.2 °C 46.2 °F /  7.9 °C 30in /  1014.9hPa NE 4mph /  6.4km/h 6.9mph /  11.1km/h 48.1% 0in /  0.0mm
16:19 66.6 °F /  19.2 °C 45.9 °F /  7.7 °C 30in /  1014.9hPa NE 3.6mph /  5.8km/h 7.4mph /  11.9km/h 47.3% 0in /  0.0mm
16:24 66.4 °F /  19.1 °C 45.9 °F /  7.7 °C 30in /  1014.9hPa NE 4.3mph /  6.9km/h 7mph /  11.3km/h 47.4% 0in /  0.0mm
16:29 66.6 °F /  19.2 °C 45.3 °F /  7.4 °C 30in /  1014.7hPa ENE 4.7mph /  7.6km/h 7mph /  11.3km/h 46.4% 0in /  0.0mm
16:34 66.6 °F /  19.2 °C 45.5 °F /  7.5 °C 30in /  1014.7hPa NE 4.2mph /  6.8km/h 6.9mph /  11.1km/h 46.8% 0in /  0.0mm
16:39 66.6 °F /  19.2 °C 45.3 °F /  7.4 °C 30in /  1014.8hPa NNE 4mph /  6.5km/h 8.1mph /  13km/h 46.4% 0in /  0.0mm
16:44 66.6 °F /  19.2 °C 45.3 °F /  7.4 °C 30in /  1014.8hPa NE 4.5mph /  7.2km/h 8mph /  12.9km/h 46.4% 0in /  0.0mm
16:49 66.6 °F /  19.2 °C 45.7 °F /  7.6 °C 30in /  1014.8hPa NE 4.7mph /  7.6km/h 7mph /  11.3km/h 46.9% 0in /  0.0mm
16:54 66.6 °F /  19.2 °C 45.5 °F /  7.5 °C 30in /  1014.8hPa NNE 4mph /  6.4km/h 6.9mph /  11.1km/h 46.6% 0in /  0.0mm
16:59 66.6 °F /  19.2 °C 45.5 °F /  7.5 °C 30in /  1014.7hPa NNE 3.6mph /  5.8km/h 7mph /  11.3km/h 46.5% 0in /  0.0mm
17:04 66.7 °F /  19.3 °C 45.7 °F /  7.6 °C 30in /  1014.7hPa ENE 3.9mph /  6.2km/h 6mph /  9.7km/h 46.6% 0in /  0.0mm
17:09 66.7 °F /  19.3 °C 45.5 °F /  7.5 °C 30in /  1014.7hPa NE 4mph /  6.5km/h 7.4mph /  11.9km/h 46.3% 0in /  0.0mm
17:14 66.7 °F /  19.3 °C 44.8 °F /  7.1 °C 30in /  1014.7hPa NE 4mph /  6.5km/h 7mph /  11.3km/h 45.1% 0in /  0.0mm
17:19 66.7 °F /  19.3 °C 44.6 °F /  7 °C 30in /  1014.7hPa NE 4mph /  6.5km/h 6mph /  9.7km/h 44.8% 0in /  0.0mm
17:24 66.7 °F /  19.3 °C 44.4 °F /  6.9 °C 30in /  1014.8hPa NE 3.3mph /  5.3km/h 5.9mph /  9.5km/h 44.6% 0in /  0.0mm
17:29 66.6 °F /  19.2 °C 44.6 °F /  7 °C 30in /  1014.8hPa NE 2.9mph /  4.7km/h 7.4mph /  11.9km/h 45% 0in /  0.0mm
17:34 66.6 °F /  19.2 °C 44.4 °F /  6.9 °C 30in /  1014.8hPa NE 3.9mph /  6.2km/h 7mph /  11.3km/h 44.9% 0in /  0.0mm
17:39 66.6 °F /  19.2 °C 44.4 °F /  6.9 °C 30in /  1014.8hPa NE 4.3mph /  6.9km/h 6.9mph /  11.1km/h 45% 0in /  0.0mm
17:44 66.6 °F /  19.2 °C 44.8 °F /  7.1 °C 30in /  1014.7hPa NE 4.1mph /  6.6km/h 7mph /  11.3km/h 45.5% 0in /  0.0mm
17:49 66.6 °F /  19.2 °C 45.7 °F /  7.6 °C 30in /  1014.7hPa NE 4mph /  6.5km/h 7mph /  11.3km/h 47.1% 0in /  0.0mm
17:54 66.6 °F /  19.2 °C 46.6 °F /  8.1 °C 30in /  1014.7hPa NE 4mph /  6.5km/h 7mph /  11.3km/h 48.5% 0in /  0.0mm
17:59 66.4 °F /  19.1 °C 46.6 °F /  8.1 °C 30in /  1014.6hPa NE 4mph /  6.5km/h 8.1mph /  13km/h 49.1% 0in /  0.0mm
18:04 66.4 °F /  19.1 °C 47.1 °F /  8.4 °C 30in /  1014.6hPa NE 4.5mph /  7.2km/h 8.1mph /  13km/h 50% 0in /  0.0mm
18:09 66.2 °F /  19 °C 47.3 °F /  8.5 °C 30in /  1014.6hPa NNE 4.7mph /  7.6km/h 8mph /  12.9km/h 50.6% 0in /  0.0mm
18:14 66 °F /  18.9 °C 47.5 °F /  8.6 °C 30in /  1014.6hPa NNE 4.2mph /  6.8km/h 7mph /  11.3km/h 51% 0in /  0.0mm
18:19 65.8 °F /  18.8 °C 47.3 °F /  8.5 °C 30in /  1014.6hPa NNE 4mph /  6.5km/h 7mph /  11.3km/h 51% 0in /  0.0mm
18:24 65.8 °F /  18.8 °C 47.7 °F /  8.7 °C 30in /  1014.6hPa NE 4mph /  6.5km/h 6.4mph /  10.3km/h 51.9% 0in /  0.0mm
18:29 65.7 °F /  18.7 °C 47.5 °F /  8.6 °C 30in /  1014.6hPa NE 4mph /  6.5km/h 7.4mph /  11.9km/h 52% 0in /  0.0mm
18:34 65.7 °F /  18.7 °C 47.5 °F /  8.6 °C 30in /  1014.6hPa NE 4.2mph /  6.8km/h 8.5mph /  13.7km/h 52% 0in /  0.0mm
18:39 65.5 °F /  18.6 °C 47.8 °F /  8.8 °C 30in /  1014.6hPa NE 4.3mph /  6.9km/h 9mph /  14.5km/h 52.8% 0in /  0.0mm
18:44 65.5 °F /  18.6 °C 48 °F /  8.9 °C 30in /  1014.6hPa NE 4.1mph /  6.6km/h 7mph /  11.3km/h 53.1% 0in /  0.0mm
18:49 65.3 °F /  18.5 °C 48.4 °F /  9.1 °C 30in /  1014.6hPa NE 4mph /  6.5km/h 9.2mph /  14.8km/h 54.3% 0in /  0.0mm
18:54 65.1 °F /  18.4 °C 48.7 °F /  9.3 °C 30in /  1014.8hPa NNE 4.8mph /  7.7km/h 9mph /  14.5km/h 55.5% 0in /  0.0mm
18:59 64.9 °F /  18.3 °C 49.3 °F /  9.6 °C 30in /  1014.8hPa NNE 5.2mph /  8.4km/h 7mph /  11.3km/h 56.7% 0in /  0.0mm
19:04 64.9 °F /  18.3 °C 49.5 °F /  9.7 °C 30in /  1014.8hPa NE 4.3mph /  7km/h 6mph /  9.7km/h 57.5% 0in /  0.0mm
19:09 64.8 °F /  18.2 °C 49.6 °F /  9.8 °C 30in /  1014.8hPa NE 4mph /  6.5km/h 6.9mph /  11.1km/h 58% 0in /  0.0mm
19:14 64.8 °F /  18.2 °C 50 °F /  10 °C 30in /  1014.8hPa NE 4mph /  6.5km/h 7mph /  11.3km/h 58.7% 0in /  0.0mm
19:19 64.6 °F /  18.1 °C 50.4 °F /  10.2 °C 30in /  1014.8hPa NE 4mph /  6.5km/h 6mph /  9.7km/h 59.9% 0in /  0.0mm
19:24 64.6 °F /  18.1 °C 50.7 °F /  10.4 °C 30in /  1014.8hPa NE 3.4mph /  5.5km/h 5.9mph /  9.5km/h 60.8% 0in /  0.0mm
19:29 64.4 °F /  18 °C 50.7 °F /  10.4 °C 30in /  1014.7hPa NE 3.1mph /  5km/h 6.2mph /  10km/h 61.2% 0in /  0.0mm
19:34 64.2 °F /  17.9 °C 50.9 °F /  10.5 °C 30in /  1014.7hPa NE 3.7mph /  5.9km/h 6.2mph /  10km/h 62% 0in /  0.0mm
19:39 64.2 °F /  17.9 °C 51.3 °F /  10.7 °C 30in /  1015.0hPa NE 4mph /  6.5km/h 6mph /  9.7km/h 62.8% 0in /  0.0mm
19:44 64 °F /  17.8 °C 51.3 °F /  10.7 °C 30in /  1015.0hPa NNE 4mph /  6.5km/h 6mph /  9.7km/h 63% 0in /  0.0mm
19:49 64 °F /  17.8 °C 51.4 °F /  10.8 °C 30in /  1015.0hPa NNE 4mph /  6.5km/h 5mph /  8km/h 63.7% 0in /  0.0mm
19:54 63.9 °F /  17.7 °C 51.8 °F /  11 °C 30in /  1015.2hPa North 3.4mph /  5.5km/h 5.9mph /  9.5km/h 64.5% 0in /  0.0mm
19:59 63.7 °F /  17.6 °C 51.8 °F /  11 °C 30in /  1015.2hPa North 3.1mph /  5km/h 6mph /  9.7km/h 65% 0in /  0.0mm
20:04 63.7 °F /  17.6 °C 51.6 °F /  10.9 °C 30in /  1015.2hPa NO 3mph /  4.8km/h 5mph /  8km/h 65.1% 0in /  0.0mm
20:09 63.5 °F /  17.5 °C 51.8 °F /  11 °C 30in /  1015.2hPa North 2.9mph /  4.7km/h 4.6mph /  7.4km/h 65.6% 0in /  0.0mm
20:14 63.3 °F /  17.4 °C 51.3 °F /  10.7 °C 30in /  1015.2hPa NNE 2.3mph /  3.7km/h 5.8mph /  9.3km/h 65% 0in /  0.0mm
20:19 63.3 °F /  17.4 °C 51.3 °F /  10.7 °C 30in /  1015.2hPa NNO 2mph /  3.2km/h 6mph /  9.7km/h 65% 0in /  0.0mm
20:24 63.3 °F /  17.4 °C 51.3 °F /  10.7 °C 30in /  1015.3hPa North 2mph /  3.2km/h 5.2mph /  8.4km/h 65% 0in /  0.0mm
20:29 63.1 °F /  17.3 °C 51.3 °F /  10.7 °C 30in /  1015.3hPa NNE 2mph /  3.2km/h 5.2mph /  8.4km/h 65% 0in /  0.0mm
20:34 63.1 °F /  17.3 °C 51.3 °F /  10.7 °C 30in /  1015.3hPa NNE 2.7mph /  4.4km/h 5mph /  8km/h 65% 0in /  0.0mm
20:39 63 °F /  17.2 °C 51.1 °F /  10.6 °C 30in /  1015.3hPa NNE 3.1mph /  5km/h 5.9mph /  9.5km/h 65% 0in /  0.0mm
20:44 63 °F /  17.2 °C 51.3 °F /  10.7 °C 30in /  1015.0hPa NNE 3.1mph /  5km/h 6mph /  9.7km/h 65.7% 0in /  0.0mm
20:49 62.8 °F /  17.1 °C 51.3 °F /  10.7 °C 30in /  1015.0hPa North 3.1mph /  5km/h 5.8mph /  9.3km/h 66.2% 0in /  0.0mm
20:54 62.8 °F /  17.1 °C 51.4 °F /  10.8 °C 30in /  1015.0hPa North 3mph /  4.8km/h 6mph /  9.7km/h 66.6% 0in /  0.0mm
20:59 62.6 °F /  17 °C 51.1 °F /  10.6 °C 30in /  1014.9hPa NE 2.9mph /  4.7km/h 5mph /  8km/h 66% 0in /  0.0mm
21:04 62.6 °F /  17 °C 51.1 °F /  10.6 °C 30in /  1014.9hPa NE 3mph /  4.9km/h 5.8mph /  9.3km/h 66% 0in /  0.0mm
21:09 62.8 °F /  17.1 °C 51.1 °F /  10.6 °C 30in /  1014.9hPa NNE 3.1mph /  5km/h 6mph /  9.7km/h 66% 0in /  0.0mm
21:14 62.6 °F /  17 °C 51.4 °F /  10.8 °C 30in /  1014.7hPa NNO 3.4mph /  5.5km/h 6mph /  9.7km/h 66.8% 0in /  0.0mm
21:19 62.6 °F /  17 °C 51.4 °F /  10.8 °C 30in /  1014.7hPa NNO 3.6mph /  5.8km/h 5mph /  8km/h 67% 0in /  0.0mm
21:24 62.4 °F /  16.9 °C 51.3 °F /  10.7 °C 30in /  1014.7hPa North 2.4mph /  3.9km/h 3.5mph /  5.6km/h 67% 0in /  0.0mm
21:29 62.4 °F /  16.9 °C 51.3 °F /  10.7 °C 30in /  1014.4hPa NNE 1.8mph /  2.9km/h 3mph /  4.8km/h 67% 0in /  0.0mm
21:34 62.4 °F /  16.9 °C 51.6 °F /  10.9 °C 30in /  1014.4hPa NNE 1.8mph /  2.9km/h 3.5mph /  5.6km/h 67.7% 0in /  0.0mm
21:39 62.2 °F /  16.8 °C 51.4 °F /  10.8 °C 30in /  1014.5hPa NNE 1.8mph /  2.9km/h 3mph /  4.8km/h 68% 0in /  0.0mm
21:44 62.2 °F /  16.8 °C 51.4 °F /  10.8 °C 30in /  1014.5hPa NNE 1.6mph /  2.5km/h 2.9mph /  4.7km/h 67.8% 0in /  0.0mm
21:49 62.2 °F /  16.8 °C 51.3 °F /  10.7 °C 30in /  1014.5hPa NNE 1.4mph /  2.2km/h 3mph /  4.8km/h 67.6% 0in /  0.0mm
21:54 62.1 °F /  16.7 °C 51.1 °F /  10.6 °C 30in /  1014.8hPa NNE 1.4mph /  2.2km/h 3mph /  4.8km/h 67% 0in /  0.0mm
21:59 62.2 °F /  16.8 °C 51.1 °F /  10.6 °C 30in /  1014.8hPa North 1.4mph /  2.2km/h 4.7mph /  7.6km/h 67% 0in /  0.0mm
22:04 62.2 °F /  16.8 °C 50.7 °F /  10.4 °C 30in /  1014.8hPa OSO 1.8mph /  2.9km/h 5.2mph /  8.4km/h 66.2% 0in /  0.0mm
22:09 62.2 °F /  16.8 °C 50.4 °F /  10.2 °C 30in /  1015.2hPa SO 2mph /  3.2km/h 5mph /  8km/h 65.1% 0in /  0.0mm
22:14 62.2 °F /  16.8 °C 50.4 °F /  10.2 °C 30in /  1015.2hPa SO 2.2mph /  3.6km/h 6.4mph /  10.3km/h 64.9% 0in /  0.0mm
22:19 62.4 °F /  16.9 °C 50 °F /  10 °C 30in /  1015.2hPa SO 2.4mph /  3.9km/h 7mph /  11.3km/h 64% 0in /  0.0mm
22:24 62.4 °F /  16.9 °C 50 °F /  10 °C 30in /  1015.4hPa SO 3.2mph /  5.1km/h 6mph /  9.7km/h 63.7% 0in /  0.0mm
22:29 62.4 °F /  16.9 °C 49.6 °F /  9.8 °C 30in /  1015.4hPa SO 3.6mph /  5.8km/h 5mph /  8km/h 63% 0in /  0.0mm
22:34 62.4 °F /  16.9 °C 49.8 °F /  9.9 °C 30in /  1015.4hPa NE 2.4mph /  3.9km/h 5.8mph /  9.3km/h 63% 0in /  0.0mm
22:39 62.6 °F /  17 °C 50 °F /  10 °C 30in /  1015.4hPa NE 1.8mph /  2.9km/h 6mph /  9.7km/h 63.5% 0in /  0.0mm
22:44 62.8 °F /  17.1 °C 50.4 °F /  10.2 °C 30in /  1015.1hPa Oeste 2.5mph /  4.1km/h 4.6mph /  7.4km/h 64% 0in /  0.0mm
22:49 62.8 °F /  17.1 °C 50.4 °F /  10.2 °C 30in /  1015.1hPa Oeste 2.9mph /  4.7km/h 5mph /  8km/h 64% 0in /  0.0mm
22:54 62.6 °F /  17 °C 50.2 °F /  10.1 °C 30in /  1015.2hPa Oeste 2.2mph /  3.5km/h 3mph /  4.8km/h 64% 0in /  0.0mm
22:59 62.4 °F /  16.9 °C 49.8 °F /  9.9 °C 30in /  1015.2hPa Oeste 1.8mph /  2.9km/h 4.6mph /  7.4km/h 63.3% 0in /  0.0mm
23:04 62.4 °F /  16.9 °C 49.6 °F /  9.8 °C 30in /  1015.2hPa OSO 1.8mph /  2.9km/h 5mph /  8km/h 63% 0in /  0.0mm
23:09 62.4 °F /  16.9 °C 49.6 °F /  9.8 °C 30in /  1015.6hPa OSO 1.8mph /  2.9km/h 5mph /  8km/h 63% 0in /  0.0mm
23:14 62.4 °F /  16.9 °C 49.6 °F /  9.8 °C 30in /  1015.6hPa NO 1.9mph /  3.1km/h 5mph /  8km/h 63% 0in /  0.0mm
23:19 62.4 °F /  16.9 °C 49.6 °F /  9.8 °C 30in /  1015.6hPa North 2mph /  3.2km/h 4mph /  6.4km/h 63% 0in /  0.0mm
23:24 62.4 °F /  16.9 °C 49.5 °F /  9.7 °C 30in /  1015.7hPa North 1.9mph /  3km/h 5.2mph /  8.4km/h 62.7% 0in /  0.0mm
23:29 62.4 °F /  16.9 °C 50.9 °F /  10.5 °C 30in /  1015.7hPa SSE 1.8mph /  2.9km/h 5mph /  8km/h 65.9% 0in /  0.0mm
23:34 62.6 °F /  17 °C 51.8 °F /  11 °C 30in /  1015.7hPa SE 2.7mph /  4.3km/h 5mph /  8km/h 67.8% 0in /  0.0mm
23:39 62.6 °F /  17 °C 52.2 °F /  11.2 °C 30in /  1015.7hPa SE 3.1mph /  5km/h 5.4mph /  8.7km/h 68.6% 0in /  0.0mm
23:44 62.4 °F /  16.9 °C 52.5 °F /  11.4 °C 30in /  1015.4hPa SSE 2.6mph /  4.2km/h 6mph /  9.7km/h 69.9% 0in /  0.0mm
23:49 62.2 °F /  16.8 °C 52.5 °F /  11.4 °C 30in /  1015.4hPa SE 2.4mph /  3.9km/h 5mph /  8km/h 70.5% 0in /  0.0mm
23:54 62.2 °F /  16.8 °C 52.7 °F /  11.5 °C 30in /  1015.4hPa ESE 2.1mph /  3.4km/h 5mph /  8km/h 71% 0in /  0.0mm
23:59 62.1 °F /  16.7 °C 52.5 °F /  11.4 °C 30in /  1015.3hPa ESE 2mph /  3.2km/h 1mph /  1.6km/h 71% 0in /  0.0mm
Murcia-Puente Tocinos, Espa?a
Compliments of Weather Underground - 3.25 mb

La estación de MeteoMurcia.com, publica sus datos en los siguientes proyectos:

Weather Underground PWS IMURCIAP2 Meteoclimatic www.awekas.at

W3Counter
Web Analytics